ePrivacy and GPDR Cookie Consent by Cookie Consent
EmailTwitter


Surface observations / United Kingdom / EGLC

Regions: Quebec | Canada | USA | Europe | France | UK | Elsewhere
Station
Display
Info & Location for EGLC | Help decoding METAR

Weather Conditions observed on 2021/10/22 at 05:50 UTC at LONDON CITY AIRP, UK (EGLC)

Sky conditions: partly cloudy.

Temperature: 7.0 Celsius.

Dewpoint: 4.0 Celsius.

Relative Humidity: 81%

Windchill Factor 3.

Winds: West-southwest at 22 km/h or 12 knots.

Mean Sea level Pressure: 101.90 kilopascals.

Horizontal visibility: 6.21 statute miles or 9.94 kilometers.

Height of the Ceiling: 1280 metres ( 4200 feet ).

Coded METAR:

EGLC 220550Z AUTO 25012KT 9999 BKN042 07/04 Q1019=